Time;durP1;ratioP1;P1;durP2;ratioP2;P2;SDS_P1;SDS_P2;PMS_P1;PMS_P2;Temp;Humidity;BMP_temperature;BMP_pressure;BME280_temperature;BME280_humidity;BME280_pressure;Samples;Min_cycle;Max_cycle;Signal;HPM_P1;HPM_P2
2023/04/17 00:02:00;;;;;;;;;;;20.20;35.50;;;;;;8405481;28;19920;-44
2023/04/17 00:06:00;;;;;;;;;;;20.20;35.50;;;;;;8405239;28;19913;-45
2023/04/17 00:10:01;;;;;;;;;;;20.10;35.50;;;;;;8405314;28;20388;-45
2023/04/17 00:14:01;;;;;;;;;;;20.20;35.50;;;;;;8405258;28;19928;-45
2023/04/17 00:18:02;;;;;;;;;;;20.10;35.50;;;;;;8405000;28;19916;-45
2023/04/17 00:22:02;;;;;;;;;;;20.10;35.50;;;;;;8405293;28;19923;-45
2023/04/17 00:26:03;;;;;;;;;;;20.10;35.50;;;;;;8405514;28;19993;-45
2023/04/17 00:30:03;;;;;;;;;;;20.10;35.50;;;;;;8402244;28;19921;-45
2023/04/17 00:34:04;;;;;;;;;;;20.10;35.60;;;;;;8400093;28;19944;-45
2023/04/17 00:38:04;;;;;;;;;;;20.10;35.60;;;;;;8399753;28;19917;-45
2023/04/17 00:42:05;;;;;;;;;;;20.10;35.50;;;;;;8399070;28;19958;-44
2023/04/17 00:46:06;;;;;;;;;;;20.00;35.50;;;;;;8399965;28;19941;-46
2023/04/17 00:50:07;;;;;;;;;;;20.00;35.50;;;;;;8399364;28;20347;-45
2023/04/17 00:54:07;;;;;;;;;;;20.00;35.60;;;;;;8398583;28;19924;-45
2023/04/17 00:58:08;;;;;;;;;;;20.00;35.60;;;;;;8399174;28;19925;-45
2023/04/17 01:02:11;;;;;;;;;;;20.00;35.70;;;;;;8399053;28;19975;-45
2023/04/17 01:06:12;;;;;;;;;;;20.00;35.60;;;;;;8388656;28;19917;-46
2023/04/17 01:10:12;;;;;;;;;;;19.90;35.60;;;;;;8390682;28;19982;-45
2023/04/17 01:14:13;;;;;;;;;;;20.00;35.70;;;;;;8398818;28;20015;-45
2023/04/17 01:18:14;;;;;;;;;;;19.90;35.60;;;;;;8398045;28;19924;-45
2023/04/17 01:22:20;;;;;;;;;;;20.00;35.70;;;;;;8398976;28;19920;-46
2023/04/17 01:26:22;;;;;;;;;;;19.90;36.20;;;;;;8398607;28;19916;-46
2023/04/17 01:30:22;;;;;;;;;;;20.00;35.80;;;;;;8397725;28;19939;-47
2023/04/17 01:34:23;;;;;;;;;;;19.90;35.70;;;;;;8397989;28;19964;-45
2023/04/17 01:38:23;;;;;;;;;;;19.90;35.70;;;;;;8398047;28;19917;-45
2023/04/17 01:42:24;;;;;;;;;;;19.90;35.80;;;;;;8397446;28;20410;-45
2023/04/17 01:46:24;;;;;;;;;;;19.90;35.80;;;;;;8397673;28;19951;-45
2023/04/17 01:50:26;;;;;;;;;;;19.90;35.80;;;;;;8397447;28;20015;-46
2023/04/17 01:54:26;;;;;;;;;;;19.90;35.80;;;;;;8396676;28;20011;-46
2023/04/17 01:58:27;;;;;;;;;;;19.90;35.90;;;;;;8397205;28;20400;-46
2023/04/17 02:02:27;;;;;;;;;;;19.90;35.90;;;;;;8397225;28;19920;-46
2023/04/17 02:06:28;;;;;;;;;;;19.80;35.90;;;;;;8396492;28;20052;-45
2023/04/17 02:10:29;;;;;;;;;;;19.80;35.90;;;;;;8397186;28;19920;-44
2023/04/17 02:14:30;;;;;;;;;;;19.80;35.90;;;;;;8396860;28;19925;-45
2023/04/17 02:18:30;;;;;;;;;;;19.80;35.90;;;;;;8396106;28;19923;-45
2023/04/17 02:22:30;;;;;;;;;;;19.70;35.90;;;;;;8396814;28;20043;-45
2023/04/17 02:26:31;;;;;;;;;;;19.80;35.90;;;;;;8396517;28;19916;-45
2023/04/17 02:30:31;;;;;;;;;;;19.80;35.90;;;;;;8395874;28;19917;-45
2023/04/17 02:34:32;;;;;;;;;;;19.80;35.90;;;;;;8396635;28;20288;-45
2023/04/17 02:38:32;;;;;;;;;;;19.80;36.00;;;;;;8395876;28;19923;-45
2023/04/17 02:42:33;;;;;;;;;;;19.80;36.00;;;;;;8395584;28;19966;-44
2023/04/17 02:46:33;;;;;;;;;;;19.70;36.00;;;;;;8395849;28;19917;-45
2023/04/17 02:50:33;;;;;;;;;;;19.70;36.00;;;;;;8395781;28;19923;-45
2023/04/17 02:54:34;;;;;;;;;;;19.70;36.00;;;;;;8394352;28;19924;-46
2023/04/17 02:58:35;;;;;;;;;;;19.70;36.00;;;;;;8395900;28;20007;-46
2023/04/17 03:02:36;;;;;;;;;;;19.70;36.00;;;;;;8395650;28;20429;-46
2023/04/17 03:06:37;;;;;;;;;;;19.70;36.00;;;;;;8395116;28;20365;-45
2023/04/17 03:10:37;;;;;;;;;;;19.70;36.00;;;;;;8395336;28;19922;-46
2023/04/17 03:14:38;;;;;;;;;;;19.70;36.00;;;;;;8395166;28;19924;-45
2023/04/17 03:18:39;;;;;;;;;;;19.70;36.00;;;;;;8394827;28;20391;-45
2023/04/17 03:22:40;;;;;;;;;;;19.70;36.00;;;;;;8395384;28;19919;-46
2023/04/17 03:26:40;;;;;;;;;;;19.70;36.00;;;;;;8394995;28;20274;-45
2023/04/17 03:30:41;;;;;;;;;;;19.70;36.00;;;;;;8395002;28;19921;-45
2023/04/17 03:34:41;;;;;;;;;;;19.70;36.00;;;;;;8395040;28;19925;-46
2023/04/17 03:38:42;;;;;;;;;;;19.60;35.90;;;;;;8394592;28;19916;-44
2023/04/17 03:42:42;;;;;;;;;;;19.70;35.90;;;;;;8395077;28;19970;-45
2023/04/17 03:46:42;;;;;;;;;;;19.70;35.90;;;;;;8394978;28;19917;-46
2023/04/17 03:50:43;;;;;;;;;;;19.70;35.90;;;;;;8394278;28;19940;-46
2023/04/17 03:54:44;;;;;;;;;;;19.70;35.90;;;;;;8394715;28;19948;-46
2023/04/17 03:58:44;;;;;;;;;;;19.70;35.90;;;;;;8394905;28;19916;-46
2023/04/17 04:02:45;;;;;;;;;;;19.70;35.90;;;;;;8394354;28;20379;-44
2023/04/17 04:06:46;;;;;;;;;;;19.70;35.90;;;;;;8397957;28;19917;-45
2023/04/17 04:10:46;;;;;;;;;;;19.70;36.00;;;;;;8399642;28;19924;-45
2023/04/17 04:14:47;;;;;;;;;;;19.70;35.70;;;;;;8399873;28;20369;-46
2023/04/17 04:18:47;;;;;;;;;;;19.80;35.70;;;;;;8400324;28;21336;-45
2023/04/17 04:22:48;;;;;;;;;;;19.90;35.60;;;;;;8400584;28;19920;-44
2023/04/17 04:26:49;;;;;;;;;;;20.00;35.60;;;;;;8399771;28;19920;-44
2023/04/17 04:30:50;;;;;;;;;;;20.10;35.50;;;;;;8400023;28;19923;-43
2023/04/17 04:34:50;;;;;;;;;;;20.20;35.50;;;;;;8400109;28;19924;-43
2023/04/17 04:38:51;;;;;;;;;;;20.30;35.50;;;;;;8399594;28;19919;-44
2023/04/17 04:42:51;;;;;;;;;;;20.30;35.40;;;;;;8399839;28;19912;-44
2023/04/17 04:46:54;;;;;;;;;;;20.30;35.40;;;;;;8399600;28;20342;-44
2023/04/17 04:50:55;;;;;;;;;;;20.40;35.40;;;;;;8399071;28;19917;-44
2023/04/17 04:54:55;;;;;;;;;;;20.40;35.50;;;;;;8399280;28;19930;-43
2023/04/17 04:58:55;;;;;;;;;;;20.40;35.40;;;;;;8399367;28;19948;-43
2023/04/17 05:02:56;;;;;;;;;;;20.50;35.50;;;;;;8399116;28;19924;-44
2023/04/17 05:06:56;;;;;;;;;;;20.50;35.50;;;;;;8399118;28;19967;-44
2023/04/17 05:10:59;;;;;;;;;;;20.50;35.40;;;;;;8398335;28;21491;-43
2023/04/17 05:14:59;;;;;;;;;;;20.50;35.50;;;;;;8398343;28;19939;-43
2023/04/17 05:19:00;;;;;;;;;;;20.50;35.50;;;;;;8397988;28;19920;-43
2023/04/17 05:23:00;;;;;;;;;;;20.50;35.40;;;;;;8398949;28;20289;-44
2023/04/17 05:27:01;;;;;;;;;;;20.50;35.40;;;;;;8398029;28;19923;-44
2023/04/17 05:31:01;;;;;;;;;;;20.40;35.40;;;;;;8398372;28;19920;-43
2023/04/17 05:35:02;;;;;;;;;;;20.40;35.40;;;;;;8397740;28;19929;-43
2023/04/17 05:39:02;;;;;;;;;;;20.40;35.50;;;;;;8397253;28;19919;-43
2023/04/17 05:43:07;;;;;;;;;;;20.40;36.00;;;;;;8398249;28;20285;-45
2023/04/17 05:47:07;;;;;;;;;;;20.40;35.40;;;;;;8397655;28;19924;-43
2023/04/17 05:51:08;;;;;;;;;;;20.40;35.50;;;;;;8396870;28;19944;-46
2023/04/17 05:55:08;;;;;;;;;;;20.40;35.50;;;;;;8397141;28;19928;-45
2023/04/17 05:59:09;;;;;;;;;;;20.40;35.60;;;;;;8397240;28;20051;-45
2023/04/17 06:03:09;;;;;;;;;;;20.50;35.60;;;;;;8397032;28;19920;-44
2023/04/17 06:07:10;;;;;;;;;;;20.50;35.50;;;;;;8397024;28;20007;-44
2023/04/17 06:11:11;;;;;;;;;;;20.50;36.10;;;;;;8396697;28;20285;-44
2023/04/17 06:15:11;;;;;;;;;;;20.60;35.50;;;;;;8396103;28;19925;-43
2023/04/17 06:19:12;;;;;;;;;;;20.60;35.50;;;;;;8397080;28;19921;-44
2023/04/17 06:23:12;;;;;;;;;;;20.60;35.50;;;;;;8396734;28;19963;-43
2023/04/17 06:27:13;;;;;;;;;;;20.70;35.50;;;;;;8395719;28;19916;-45
2023/04/17 06:31:13;;;;;;;;;;;20.70;35.50;;;;;;8395833;28;19920;-45
2023/04/17 06:35:14;;;;;;;;;;;20.70;35.50;;;;;;8396080;28;20461;-48
2023/04/17 06:39:14;;;;;;;;;;;20.70;35.40;;;;;;8395765;28;19924;-45
2023/04/17 06:43:15;;;;;;;;;;;20.70;35.50;;;;;;8395767;28;19916;-45
2023/04/17 06:47:15;;;;;;;;;;;20.70;35.50;;;;;;8395791;28;19917;-44
2023/04/17 06:51:19;;;;;;;;;;;20.70;35.60;;;;;;8395114;28;20381;-45
2023/04/17 06:55:19;;;;;;;;;;;20.70;35.60;;;;;;8395361;28;19925;-46
2023/04/17 06:59:20;;;;;;;;;;;20.70;35.50;;;;;;8395497;28;20290;-45
2023/04/17 07:03:20;;;;;;;;;;;20.60;35.50;;;;;;8389840;28;20285;-48
2023/04/17 07:07:21;;;;;;;;;;;20.60;35.50;;;;;;8385078;28;20365;-44
2023/04/17 07:11:21;;;;;;;;;;;20.60;35.70;;;;;;8395090;28;20003;-46
2023/04/17 07:15:22;;;;;;;;;;;20.60;35.70;;;;;;8394421;28;19924;-45
2023/04/17 07:19:22;;;;;;;;;;;20.60;35.70;;;;;;8395210;28;19947;-46
2023/04/17 07:23:23;;;;;;;;;;;20.60;35.80;;;;;;8395070;28;19948;-45
2023/04/17 07:27:23;;;;;;;;;;;20.50;35.80;;;;;;8394428;28;19924;-46
2023/04/17 07:31:24;;;;;;;;;;;20.50;35.80;;;;;;8394638;28;19912;-45
2023/04/17 07:35:24;;;;;;;;;;;20.50;36.40;;;;;;8394595;28;19925;-45
2023/04/17 07:39:29;;;;;;;;;;;20.50;35.90;;;;;;8395757;28;19916;-45
2023/04/17 07:43:29;;;;;;;;;;;20.50;35.80;;;;;;8401326;28;19973;-45
2023/04/17 07:47:30;;;;;;;;;;;20.50;35.90;;;;;;8401326;28;20393;-46
2023/04/17 07:51:31;;;;;;;;;;;20.50;35.90;;;;;;8400908;28;19916;-45
2023/04/17 07:55:31;;;;;;;;;;;20.50;35.90;;;;;;8401262;28;20392;-45
2023/04/17 07:59:32;;;;;;;;;;;20.50;35.90;;;;;;8401320;28;19916;-45
2023/04/17 08:03:32;;;;;;;;;;;20.40;35.80;;;;;;8400434;28;20297;-45
2023/04/17 08:07:33;;;;;;;;;;;20.40;35.80;;;;;;8400616;28;20026;-45
2023/04/17 08:11:33;;;;;;;;;;;20.40;35.80;;;;;;8400433;28;20001;-45
2023/04/17 08:15:37;;;;;;;;;;;20.40;35.80;;;;;;8399873;28;19979;-45
2023/04/17 08:19:38;;;;;;;;;;;20.30;35.80;;;;;;8401026;28;19912;-44
2023/04/17 08:23:39;;;;;;;;;;;20.40;36.30;;;;;;8400259;28;19921;-45
2023/04/17 08:27:40;;;;;;;;;;;20.40;35.80;;;;;;8399607;28;19920;-45
2023/04/17 08:31:41;;;;;;;;;;;20.30;35.80;;;;;;8400172;28;19977;-44
2023/04/17 08:35:41;;;;;;;;;;;20.30;35.90;;;;;;8399308;28;19950;-45
2023/04/17 08:39:42;;;;;;;;;;;20.30;35.80;;;;;;8399943;28;19995;-44
2023/04/17 08:43:46;;;;;;;;;;;20.30;35.80;;;;;;8400052;28;19917;-45
2023/04/17 08:47:47;;;;;;;;;;;20.30;35.80;;;;;;8399223;28;19917;-43
2023/04/17 08:51:47;;;;;;;;;;;20.30;35.80;;;;;;8398831;28;19944;-44
2023/04/17 08:55:48;;;;;;;;;;;20.30;35.80;;;;;;8399201;28;19924;-45
2023/04/17 08:59:48;;;;;;;;;;;20.30;35.80;;;;;;8399018;28;19912;-44
2023/04/17 09:03:50;;;;;;;;;;;20.30;35.80;;;;;;8399079;28;20381;-45
2023/04/17 09:08:11;;;;;;;;;;;20.40;35.80;;;;;;8398812;28;20289;-45
2023/04/17 09:12:12;;;;;;;;;;;20.40;35.80;;;;;;8398867;28;19920;-44
2023/04/17 09:16:14;;;;;;;;;;;20.40;35.70;;;;;;8398757;28;20029;-44
2023/04/17 09:20:16;;;;;;;;;;;20.40;35.70;;;;;;8398729;28;19917;-45
2023/04/17 09:24:30;;;;;;;;;;;20.40;35.70;;;;;;8397951;28;20400;-44
2023/04/17 09:28:34;;;;;;;;;;;20.40;35.70;;;;;;8398179;28;20215;-44
2023/04/17 09:32:34;;;;;;;;;;;20.30;35.70;;;;;;8398105;28;19917;-44
2023/04/17 09:36:37;;;;;;;;;;;20.30;35.70;;;;;;8397238;28;20015;-44
2023/04/17 09:40:38;;;;;;;;;;;20.30;35.70;;;;;;8398036;28;19913;-44
2023/04/17 09:44:39;;;;;;;;;;;20.30;35.70;;;;;;8397802;28;19920;-43
2023/04/17 09:48:39;;;;;;;;;;;20.30;35.70;;;;;;8396986;28;20007;-45
2023/04/17 09:52:40;;;;;;;;;;;20.30;35.80;;;;;;8397274;28;19917;-44
2023/04/17 09:56:41;;;;;;;;;;;20.30;35.80;;;;;;8396859;28;19994;-44
2023/04/17 10:00:41;;;;;;;;;;;20.30;35.70;;;;;;8397424;28;19920;-44
2023/04/17 10:04:43;;;;;;;;;;;20.30;35.80;;;;;;8396697;28;20388;-44
2023/04/17 10:08:43;;;;;;;;;;;20.30;35.80;;;;;;8395308;28;20338;-44
2023/04/17 10:12:47;;;;;;;;;;;20.30;35.80;;;;;;8396555;28;19917;-45
2023/04/17 10:16:47;;;;;;;;;;;20.30;35.80;;;;;;8396671;28;20384;-46
2023/04/17 10:20:49;;;;;;;;;;;20.30;35.70;;;;;;8396473;28;19917;-45
2023/04/17 10:24:50;;;;;;;;;;;20.30;35.70;;;;;;8396533;28;19966;-45
2023/04/17 10:28:52;;;;;;;;;;;20.30;35.70;;;;;;8396128;28;20373;-45
2023/04/17 10:33:11;;;;;;;;;;;20.40;35.70;;;;;;8395542;28;19952;-45
2023/04/17 10:37:14;;;;;;;;;;;20.40;35.80;;;;;;8395875;28;20389;-45
2023/04/17 10:41:14;;;;;;;;;;;20.40;35.70;;;;;;8395871;28;19917;-45
2023/04/17 10:45:18;;;;;;;;;;;20.40;35.70;;;;;;8395551;28;19923;-45
2023/04/17 10:49:21;;;;;;;;;;;20.40;36.30;;;;;;8395609;28;19920;-44
2023/04/17 10:53:41;;;;;;;;;;;20.40;35.70;;;;;;8395607;28;19920;-45
2023/04/17 10:57:56;;;;;;;;;;;20.40;35.70;;;;;;8395107;28;20419;-45
2023/04/17 11:01:58;;;;;;;;;;;20.40;35.70;;;;;;8395045;28;19917;-44
2023/04/17 11:05:58;;;;;;;;;;;20.40;35.60;;;;;;8395211;28;19959;-45
2023/04/17 11:10:00;;;;;;;;;;;20.40;35.60;;;;;;8395272;28;19982;-45
2023/04/17 11:14:03;;;;;;;;;;;20.40;35.60;;;;;;8394659;28;20241;-45
2023/04/17 11:18:04;;;;;;;;;;;20.40;35.50;;;;;;8395083;28;19928;-44
2023/04/17 11:22:04;;;;;;;;;;;20.40;35.60;;;;;;8395348;28;20103;-45
2023/04/17 11:26:05;;;;;;;;;;;20.40;35.60;;;;;;8395354;28;19920;-45
2023/04/17 11:30:06;;;;;;;;;;;20.50;35.50;;;;;;8394424;28;19916;-45
2023/04/17 11:34:08;;;;;;;;;;;20.50;35.60;;;;;;8394777;28;20297;-46
2023/04/17 11:38:10;;;;;;;;;;;20.50;35.50;;;;;;8395172;28;19920;-45
2023/04/17 11:42:10;;;;;;;;;;;20.50;35.50;;;;;;8394228;28;20327;-46
2023/04/17 11:46:11;;;;;;;;;;;20.50;35.50;;;;;;8395065;28;19966;-47
2023/04/17 11:50:13;;;;;;;;;;;20.50;35.60;;;;;;8394465;28;19923;-47
2023/04/17 11:54:40;;;;;;;;;;;20.50;35.50;;;;;;8393802;28;19921;-45
2023/04/17 11:58:44;;;;;;;;;;;20.50;35.50;;;;;;8393366;28;19920;-45
2023/04/17 12:02:44;;;;;;;;;;;20.50;35.40;;;;;;8394014;28;20270;-46
2023/04/17 12:06:45;;;;;;;;;;;20.50;35.40;;;;;;8394587;28;19913;-46
2023/04/17 12:10:45;;;;;;;;;;;20.50;35.40;;;;;;8394581;28;19919;-46
2023/04/17 12:14:46;;;;;;;;;;;20.50;35.40;;;;;;8393668;28;19925;-44
2023/04/17 12:18:46;;;;;;;;;;;20.40;35.40;;;;;;8394073;28;20007;-44
2023/04/17 12:22:47;;;;;;;;;;;20.40;35.40;;;;;;8394357;28;19940;-45
2023/04/17 12:26:48;;;;;;;;;;;20.50;35.40;;;;;;8395321;28;19920;-44
2023/04/17 12:30:48;;;;;;;;;;;20.50;35.40;;;;;;8400132;28;19913;-44
2023/04/17 12:34:49;;;;;;;;;;;20.50;35.40;;;;;;8399985;28;19925;-44
2023/04/17 12:38:50;;;;;;;;;;;20.50;35.40;;;;;;8399165;28;20373;-44
2023/04/17 12:42:50;;;;;;;;;;;20.60;35.40;;;;;;8399478;28;19973;-44
2023/04/17 12:46:50;;;;;;;;;;;20.60;35.30;;;;;;8399715;28;19912;-44
2023/04/17 12:50:51;;;;;;;;;;;20.60;35.30;;;;;;8398922;28;19999;-44
2023/04/17 12:54:57;;;;;;;;;;;20.60;35.30;;;;;;8399379;28;19924;-44
2023/04/17 12:58:57;;;;;;;;;;;20.60;35.30;;;;;;8399108;28;19962;-44
2023/04/17 13:02:58;;;;;;;;;;;20.60;35.20;;;;;;8398187;28;20003;-44
2023/04/17 13:06:58;;;;;;;;;;;20.60;35.20;;;;;;8398213;28;20098;-44
2023/04/17 13:11:02;;;;;;;;;;;20.60;35.20;;;;;;8398164;28;19917;-44
2023/04/17 13:15:03;;;;;;;;;;;20.70;35.20;;;;;;8398165;28;19936;-46
2023/04/17 13:19:03;;;;;;;;;;;20.70;35.10;;;;;;8398410;28;20011;-45
2023/04/17 13:23:03;;;;;;;;;;;20.70;35.20;;;;;;8398298;28;20270;-45
2023/04/17 13:27:04;;;;;;;;;;;20.70;35.20;;;;;;8397954;28;19956;-45
2023/04/17 13:31:05;;;;;;;;;;;20.70;35.20;;;;;;8397923;28;19916;-45
2023/04/17 13:35:08;;;;;;;;;;;20.60;35.10;;;;;;8397777;28;20350;-45
2023/04/17 13:39:08;;;;;;;;;;;20.60;35.10;;;;;;8396384;28;19955;-45
2023/04/17 13:43:09;;;;;;;;;;;20.60;35.20;;;;;;8397284;28;19923;-44
2023/04/17 13:47:09;;;;;;;;;;;20.60;35.20;;;;;;8397793;28;20017;-45
2023/04/17 13:51:10;;;;;;;;;;;20.60;35.20;;;;;;8396210;28;19916;-44
2023/04/17 13:55:13;;;;;;;;;;;20.60;35.10;;;;;;8396959;28;20405;-44
2023/04/17 13:59:13;;;;;;;;;;;20.60;35.10;;;;;;8397411;28;19935;-44
2023/04/17 14:03:14;;;;;;;;;;;20.60;35.20;;;;;;8397107;28;19962;-45
2023/04/17 14:07:15;;;;;;;;;;;20.70;35.20;;;;;;8397693;28;20286;-46
2023/04/17 14:11:17;;;;;;;;;;;20.60;35.10;;;;;;8396991;28;19916;-44
2023/04/17 14:15:17;;;;;;;;;;;20.60;35.20;;;;;;8396663;28;20392;-45
2023/04/17 14:19:18;;;;;;;;;;;20.60;35.20;;;;;;8396987;28;19920;-45
2023/04/17 14:23:19;;;;;;;;;;;20.60;35.20;;;;;;8397094;28;19923;-45
2023/04/17 14:27:19;;;;;;;;;;;20.60;35.20;;;;;;8396213;28;20437;-45
2023/04/17 14:31:20;;;;;;;;;;;20.60;35.20;;;;;;8396261;28;20003;-46
2023/04/17 14:35:21;;;;;;;;;;;20.60;35.30;;;;;;8396259;28;20375;-46
2023/04/17 14:39:21;;;;;;;;;;;20.60;35.30;;;;;;8395547;28;19991;-46
2023/04/17 14:43:22;;;;;;;;;;;20.60;35.30;;;;;;8395968;28;19916;-46
2023/04/17 14:47:22;;;;;;;;;;;20.60;35.30;;;;;;8396180;28;20016;-46
2023/04/17 14:51:23;;;;;;;;;;;20.50;35.40;;;;;;8394561;28;19961;-45
2023/04/17 14:55:23;;;;;;;;;;;20.60;35.40;;;;;;8395903;28;19978;-45
2023/04/17 14:59:25;;;;;;;;;;;20.50;35.40;;;;;;8395783;28;19924;-45
2023/04/17 15:03:26;;;;;;;;;;;20.50;35.40;;;;;;8395233;28;19997;-45
2023/04/17 15:07:26;;;;;;;;;;;20.50;35.40;;;;;;8395951;28;19916;-47
2023/04/17 15:11:26;;;;;;;;;;;20.50;35.50;;;;;;8395952;28;19924;-46
2023/04/17 15:15:27;;;;;;;;;;;20.60;35.40;;;;;;8394611;28;19924;-48
2023/04/17 15:19:27;;;;;;;;;;;20.70;35.30;;;;;;8395595;28;19924;-45
2023/04/17 15:23:28;;;;;;;;;;;20.70;35.20;;;;;;8395244;28;19923;-46
2023/04/17 15:27:29;;;;;;;;;;;20.80;35.20;;;;;;8394889;28;19919;-46
2023/04/17 15:31:29;;;;;;;;;;;20.80;35.20;;;;;;8395187;28;19995;-44
2023/04/17 15:35:30;;;;;;;;;;;20.90;35.00;;;;;;8394945;28;19928;-44
2023/04/17 15:39:30;;;;;;;;;;;21.00;35.10;;;;;;8394752;28;19920;-44
2023/04/17 15:43:31;;;;;;;;;;;21.00;35.00;;;;;;8394656;28;19916;-45
2023/04/17 15:47:31;;;;;;;;;;;21.10;35.00;;;;;;8394659;28;20305;-45
2023/04/17 15:51:32;;;;;;;;;;;21.10;35.00;;;;;;8394102;28;19923;-45
2023/04/17 15:55:32;;;;;;;;;;;21.20;35.00;;;;;;8394287;28;20336;-45
2023/04/17 15:59:32;;;;;;;;;;;21.20;35.10;;;;;;8393837;28;19916;-46
2023/04/17 16:03:33;;;;;;;;;;;21.20;35.10;;;;;;8398964;28;19928;-45
2023/04/17 16:07:33;;;;;;;;;;;21.20;35.10;;;;;;8400748;28;19919;-45
2023/04/17 16:11:34;;;;;;;;;;;21.20;35.00;;;;;;8400402;28;19931;-44
2023/04/17 16:15:34;;;;;;;;;;;21.20;35.00;;;;;;8399478;28;20389;-44
2023/04/17 16:19:35;;;;;;;;;;;21.20;35.00;;;;;;8400336;28;19917;-44
2023/04/17 16:23:38;;;;;;;;;;;21.20;35.00;;;;;;8400015;28;20007;-44
2023/04/17 16:27:39;;;;;;;;;;;21.10;35.00;;;;;;8399572;28;19912;-44
2023/04/17 16:31:40;;;;;;;;;;;21.10;35.00;;;;;;8399776;28;19924;-44
2023/04/17 16:35:40;;;;;;;;;;;21.10;35.10;;;;;;8399107;28;19928;-42
2023/04/17 16:39:40;;;;;;;;;;;21.10;35.60;;;;;;8399399;28;19916;-45
2023/04/17 16:43:41;;;;;;;;;;;21.10;35.20;;;;;;8399355;28;19956;-46
2023/04/17 16:47:41;;;;;;;;;;;21.00;35.20;;;;;;8398916;28;20376;-45
2023/04/17 16:51:42;;;;;;;;;;;21.00;35.20;;;;;;8399490;28;19916;-43
2023/04/17 16:55:42;;;;;;;;;;;21.00;35.20;;;;;;8398979;28;19925;-45
2023/04/17 16:59:43;;;;;;;;;;;21.00;35.20;;;;;;8398586;28;20352;-42
2023/04/17 17:03:43;;;;;;;;;;;21.00;35.10;;;;;;8398707;28;19920;-45
2023/04/17 17:07:44;;;;;;;;;;;21.00;35.20;;;;;;8399063;28;20003;-44
2023/04/17 17:11:45;;;;;;;;;;;21.00;35.10;;;;;;8397810;28;19917;-44
2023/04/17 17:15:45;;;;;;;;;;;21.00;35.00;;;;;;8398616;28;19999;-44
2023/04/17 17:19:46;;;;;;;;;;;21.10;35.10;;;;;;8398442;28;19912;-44
2023/04/17 17:23:46;;;;;;;;;;;21.10;35.10;;;;;;8397512;28;20296;-44
2023/04/17 17:27:47;;;;;;;;;;;21.10;35.10;;;;;;8397867;28;19931;-43
2023/04/17 17:31:47;;;;;;;;;;;21.10;35.10;;;;;;8397821;28;19951;-44
2023/04/17 17:35:47;;;;;;;;;;;21.10;35.00;;;;;;8397080;28;20300;-45
2023/04/17 17:39:48;;;;;;;;;;;21.10;35.00;;;;;;8397825;28;19913;-44
2023/04/17 17:43:48;;;;;;;;;;;21.10;35.00;;;;;;8397844;28;19916;-44
2023/04/17 17:47:49;;;;;;;;;;;21.10;35.00;;;;;;8397107;28;20290;-44
2023/04/17 17:51:49;;;;;;;;;;;21.10;34.90;;;;;;8397678;28;19928;-44
2023/04/17 17:55:51;;;;;;;;;;;21.10;34.90;;;;;;8397317;28;20427;-44
2023/04/17 17:59:51;;;;;;;;;;;21.10;35.00;;;;;;8396957;28;19917;-45
2023/04/17 18:03:52;;;;;;;;;;;21.10;35.00;;;;;;8397359;28;19934;-44
2023/04/17 18:07:52;;;;;;;;;;;21.10;34.90;;;;;;8396811;28;19952;-45
2023/04/17 18:11:53;;;;;;;;;;;21.10;35.00;;;;;;8396402;28;19913;-46
2023/04/17 18:15:53;;;;;;;;;;;21.10;34.90;;;;;;8396621;28;20016;-44
2023/04/17 18:19:53;;;;;;;;;;;21.10;34.90;;;;;;8396952;28;20203;-44
2023/04/17 18:23:55;;;;;;;;;;;21.10;34.90;;;;;;8395314;28;19916;-44
2023/04/17 18:27:55;;;;;;;;;;;21.10;34.90;;;;;;8396715;28;19916;-44
2023/04/17 18:31:55;;;;;;;;;;;21.10;34.90;;;;;;8396095;28;20365;-45
2023/04/17 18:35:56;;;;;;;;;;;21.10;34.90;;;;;;8395812;28;20285;-45
2023/04/17 18:39:56;;;;;;;;;;;21.10;34.90;;;;;;8396167;28;19928;-44
2023/04/17 18:43:57;;;;;;;;;;;21.10;34.90;;;;;;8396184;28;19962;-44
2023/04/17 18:47:57;;;;;;;;;;;21.10;34.90;;;;;;8395439;28;19972;-44
2023/04/17 18:51:58;;;;;;;;;;;21.10;34.90;;;;;;8395730;28;19917;-44
2023/04/17 18:55:58;;;;;;;;;;;21.10;34.80;;;;;;8395507;28;19920;-44
2023/04/17 18:59:58;;;;;;;;;;;21.10;34.90;;;;;;8395107;28;19916;-44
2023/04/17 19:03:59;;;;;;;;;;;21.10;34.90;;;;;;8395646;28;19927;-44
2023/04/17 19:07:59;;;;;;;;;;;21.10;34.90;;;;;;8394388;28;19970;-44
2023/04/17 19:12:01;;;;;;;;;;;21.10;34.90;;;;;;8395465;28;20335;-44
2023/04/17 19:16:02;;;;;;;;;;;21.10;34.90;;;;;;8395605;28;20018;-44
2023/04/17 19:20:02;;;;;;;;;;;21.10;34.90;;;;;;8395387;28;19942;-44
2023/04/17 19:24:03;;;;;;;;;;;21.10;34.90;;;;;;8395033;28;19923;-44
2023/04/17 19:28:04;;;;;;;;;;;21.10;34.90;;;;;;8395409;28;20406;-44
2023/04/17 19:32:04;;;;;;;;;;;21.00;34.90;;;;;;8395314;28;19928;-44
2023/04/17 19:36:05;;;;;;;;;;;21.00;34.90;;;;;;8396968;28;19960;-44
2023/04/17 19:40:05;;;;;;;;;;;21.00;34.90;;;;;;8401915;28;19913;-44
2023/04/17 19:44:06;;;;;;;;;;;21.00;34.90;;;;;;8401972;28;19916;-45
2023/04/17 19:48:06;;;;;;;;;;;21.00;34.90;;;;;;8401529;28;20369;-43
2023/04/17 19:52:07;;;;;;;;;;;21.00;34.90;;;;;;8401689;28;20008;-45
2023/04/17 19:56:08;;;;;;;;;;;21.00;35.00;;;;;;8401415;28;19925;-45
2023/04/17 20:00:08;;;;;;;;;;;20.90;34.90;;;;;;8400726;28;19970;-44
2023/04/17 20:04:09;;;;;;;;;;;20.90;34.90;;;;;;8401712;28;19920;-44
2023/04/17 20:08:09;;;;;;;;;;;20.90;34.90;;;;;;8401174;28;19948;-44
2023/04/17 20:12:10;;;;;;;;;;;20.90;35.00;;;;;;8400495;28;19963;-45
2023/04/17 20:16:10;;;;;;;;;;;20.90;34.90;;;;;;8400665;28;19925;-44
2023/04/17 20:20:11;;;;;;;;;;;20.90;34.90;;;;;;8401062;28;19946;-45
2023/04/17 20:24:11;;;;;;;;;;;20.90;34.90;;;;;;8400267;28;19921;-45
2023/04/17 20:28:12;;;;;;;;;;;20.90;34.90;;;;;;8400795;28;20000;-43
2023/04/17 20:32:12;;;;;;;;;;;21.00;35.00;;;;;;8400382;28;19912;-43
2023/04/17 20:36:14;;;;;;;;;;;21.00;35.50;;;;;;8399746;28;19924;-44
2023/04/17 20:40:14;;;;;;;;;;;21.00;34.90;;;;;;8400320;28;19912;-43
2023/04/17 20:44:15;;;;;;;;;;;21.00;34.90;;;;;;8400373;28;20007;-44
2023/04/17 20:48:15;;;;;;;;;;;21.00;34.90;;;;;;8398294;28;19951;-46
2023/04/17 20:52:16;;;;;;;;;;;21.00;34.90;;;;;;8399658;28;19970;-43
2023/04/17 20:56:17;;;;;;;;;;;21.00;34.80;;;;;;8399742;28;19931;-44
2023/04/17 21:00:18;;;;;;;;;;;21.00;34.80;;;;;;8399164;28;19913;-44
2023/04/17 21:04:18;;;;;;;;;;;21.00;34.80;;;;;;8399911;28;20384;-44
2023/04/17 21:08:19;;;;;;;;;;;21.00;34.70;;;;;;8399388;28;19924;-44
2023/04/17 21:12:19;;;;;;;;;;;21.00;34.80;;;;;;8398846;28;20263;-44
2023/04/17 21:16:20;;;;;;;;;;;21.00;34.80;;;;;;8398992;28;19931;-44
2023/04/17 21:20:20;;;;;;;;;;;21.00;34.80;;;;;;8398974;28;19921;-42
2023/04/17 21:24:21;;;;;;;;;;;20.90;34.80;;;;;;8398572;28;19916;-43
2023/04/17 21:28:21;;;;;;;;;;;21.00;34.80;;;;;;8398709;28;19924;-44
2023/04/17 21:32:22;;;;;;;;;;;21.00;34.80;;;;;;8398492;28;19913;-44
2023/04/17 21:36:23;;;;;;;;;;;20.90;34.80;;;;;;8397900;28;20017;-44
2023/04/17 21:40:24;;;;;;;;;;;20.90;34.70;;;;;;8398674;28;20003;-44
2023/04/17 21:44:24;;;;;;;;;;;20.90;34.70;;;;;;8398107;28;19969;-43
2023/04/17 21:48:25;;;;;;;;;;;20.90;34.70;;;;;;8397568;28;19922;-45
2023/04/17 21:52:25;;;;;;;;;;;20.90;34.70;;;;;;8397812;28;20383;-43
2023/04/17 21:56:26;;;;;;;;;;;20.80;34.70;;;;;;8397661;28;19925;-42
2023/04/17 22:00:27;;;;;;;;;;;20.80;34.70;;;;;;8393501;28;19924;-44
2023/04/17 22:04:28;;;;;;;;;;;20.80;34.80;;;;;;8395909;28;20023;-45
2023/04/17 22:08:28;;;;;;;;;;;20.80;34.80;;;;;;8397427;28;19962;-44
2023/04/17 22:12:28;;;;;;;;;;;20.70;34.80;;;;;;8396705;28;19921;-44
2023/04/17 22:16:29;;;;;;;;;;;20.70;34.80;;;;;;8396954;28;19927;-44
2023/04/17 22:20:29;;;;;;;;;;;20.70;34.80;;;;;;8397203;28;19917;-44
2023/04/17 22:24:30;;;;;;;;;;;20.60;34.80;;;;;;8396414;28;19920;-44
2023/04/17 22:28:30;;;;;;;;;;;20.60;34.80;;;;;;8396928;28;19920;-44
2023/04/17 22:32:32;;;;;;;;;;;20.60;34.90;;;;;;8396814;28;19923;-44
2023/04/17 22:36:32;;;;;;;;;;;20.60;34.90;;;;;;8395759;28;20377;-45
2023/04/17 22:40:33;;;;;;;;;;;20.60;34.90;;;;;;8396720;28;19913;-44
2023/04/17 22:44:34;;;;;;;;;;;20.60;34.90;;;;;;8396230;28;19917;-44
2023/04/17 22:48:35;;;;;;;;;;;20.60;34.90;;;;;;8395774;28;19939;-44
2023/04/17 22:52:36;;;;;;;;;;;20.50;35.00;;;;;;8396302;28;19943;-45
2023/04/17 22:56:36;;;;;;;;;;;20.50;34.90;;;;;;8395963;28;20007;-44
2023/04/17 23:00:36;;;;;;;;;;;20.40;34.90;;;;;;8395676;28;19912;-44
2023/04/17 23:04:37;;;;;;;;;;;20.40;34.90;;;;;;8395874;28;19921;-45
2023/04/17 23:08:37;;;;;;;;;;;20.40;35.00;;;;;;8395820;28;19966;-44
2023/04/17 23:12:38;;;;;;;;;;;20.40;35.00;;;;;;8394590;28;19916;-44
2023/04/17 23:16:38;;;;;;;;;;;20.40;35.00;;;;;;8395684;28;19921;-44
2023/04/17 23:20:39;;;;;;;;;;;20.40;35.00;;;;;;8395871;28;20487;-44